createdAt,value
2023-07-30T00:01:01.547Z,7.45
2023-07-30T00:03:34.156Z,5.85
2023-07-30T00:06:07.113Z,3.03
2023-07-30T00:08:39.591Z,6.60
2023-07-30T00:11:12.143Z,8.93
2023-07-30T00:13:44.606Z,7.43
2023-07-30T00:16:17.330Z,6.57
2023-07-30T00:18:49.924Z,3.90
2023-07-30T00:21:22.541Z,5.18
2023-07-30T00:23:54.983Z,6.88
2023-07-30T00:26:27.768Z,3.65
2023-07-30T00:29:00.286Z,8.63
2023-07-30T00:31:32.787Z,7.68
2023-07-30T00:34:05.337Z,4.20
2023-07-30T00:36:37.784Z,3.30
2023-07-30T00:39:12.309Z,7.28
2023-07-30T00:41:44.889Z,15.30
2023-07-30T00:44:17.503Z,4.35
2023-07-30T00:46:50.792Z,8.68
2023-07-30T00:49:23.435Z,8.15
2023-07-30T00:51:57.646Z,5.80
2023-07-30T00:54:30.339Z,3.95
2023-07-30T00:57:03.320Z,7.57
2023-07-30T00:59:35.930Z,9.00
2023-07-30T01:02:08.464Z,14.02
2023-07-30T01:04:41.618Z,9.38
2023-07-30T01:07:14.362Z,9.02
2023-07-30T01:09:47.023Z,5.75
2023-07-30T01:12:19.568Z,5.47
2023-07-30T01:14:52.860Z,8.50
2023-07-30T01:17:25.497Z,11.43
2023-07-30T01:19:58.070Z,11.90
2023-07-30T01:22:30.658Z,11.35
2023-07-30T01:25:03.740Z,2.85
2023-07-30T01:27:45.360Z,4.93
2023-07-30T01:30:23.865Z,4.72
2023-07-30T01:32:57.414Z,6.82
2023-07-30T01:35:31.606Z,5.80
2023-07-30T01:38:06.376Z,9.02
2023-07-30T01:40:38.972Z,8.90
2023-07-30T01:43:11.540Z,11.68
2023-07-30T01:45:44.119Z,6.80
2023-07-30T01:48:16.671Z,4.50
2023-07-30T01:50:49.946Z,6.10
2023-07-30T01:53:22.471Z,9.18
2023-07-30T01:55:55.020Z,8.45
2023-07-30T01:58:27.545Z,3.65
2023-07-30T02:01:00.138Z,5.95
2023-07-30T02:03:32.811Z,4.25
2023-07-30T02:06:05.432Z,4.07
2023-07-30T02:08:38.154Z,6.55
2023-07-30T02:11:10.768Z,9.70
2023-07-30T02:13:43.648Z,8.65
2023-07-30T02:16:16.238Z,4.88
2023-07-30T02:18:48.814Z,7.85
2023-07-30T02:21:21.370Z,9.48
2023-07-30T02:23:53.885Z,6.43
2023-07-30T02:26:26.362Z,12.10
2023-07-30T02:29:01.621Z,5.65
2023-07-30T02:31:34.314Z,8.00
2023-07-30T02:34:08.129Z,9.52
2023-07-30T02:36:40.634Z,6.68
2023-07-30T02:39:13.089Z,9.95
2023-07-30T02:41:45.645Z,11.07
2023-07-30T02:44:18.150Z,6.78
2023-07-30T02:46:50.630Z,13.85
2023-07-30T02:49:23.127Z,13.23
2023-07-30T02:51:55.622Z,6.40
2023-07-30T02:54:28.225Z,5.50
2023-07-30T02:57:00.714Z,11.95
2023-07-30T02:59:37.016Z,9.27
2023-07-30T03:02:10.132Z,13.25
2023-07-30T03:04:42.681Z,11.15
2023-07-30T03:07:15.294Z,5.47
2023-07-30T03:09:48.055Z,6.20
2023-07-30T03:12:20.566Z,7.18
2023-07-30T03:14:53.080Z,7.45
2023-07-30T03:17:26.414Z,10.98
2023-07-30T03:19:59.022Z,6.32
2023-07-30T03:22:31.493Z,4.78
2023-07-30T03:25:04.909Z,9.23
2023-07-30T03:27:37.453Z,10.60
2023-07-30T03:30:10.522Z,8.60
2023-07-30T03:32:43.126Z,9.55
2023-07-30T03:35:15.800Z,9.13
2023-07-30T03:37:48.320Z,9.00
2023-07-30T03:40:20.828Z,9.85
2023-07-30T03:42:53.311Z,10.82
2023-07-30T03:45:25.843Z,11.68
2023-07-30T03:47:58.334Z,8.55
2023-07-30T03:50:30.975Z,10.68
2023-07-30T03:53:03.503Z,11.00
2023-07-30T03:55:36.159Z,16.45
2023-07-30T03:58:08.773Z,8.85
2023-07-30T04:00:41.811Z,11.07
2023-07-30T04:03:14.625Z,6.85
2023-07-30T04:05:47.174Z,13.48
2023-07-30T04:08:19.817Z,20.35
2023-07-30T04:10:52.387Z,8.75
2023-07-30T04:13:24.887Z,10.05
2023-07-30T04:15:57.425Z,9.32
2023-07-30T04:18:29.994Z,10.82
2023-07-30T04:21:02.534Z,18.23
2023-07-30T04:23:35.106Z,17.10
2023-07-30T04:26:07.637Z,13.40
2023-07-30T04:28:40.172Z,15.02
2023-07-30T04:31:12.724Z,14.73
2023-07-30T04:33:45.345Z,7.65
2023-07-30T04:36:17.937Z,13.77
2023-07-30T04:38:50.573Z,9.85
2023-07-30T04:41:23.213Z,12.35
2023-07-30T04:43:55.747Z,14.73
2023-07-30T04:46:28.371Z,12.13
2023-07-30T04:49:03.462Z,8.43
2023-07-30T04:51:36.059Z,11.18
2023-07-30T04:54:08.796Z,11.23
2023-07-30T04:56:41.472Z,15.98
2023-07-30T04:59:14.041Z,11.82
2023-07-30T05:01:46.615Z,15.70
2023-07-30T05:04:19.080Z,15.55
2023-07-30T05:06:51.536Z,14.05
2023-07-30T05:09:23.994Z,8.75
2023-07-30T05:11:56.676Z,14.18
2023-07-30T05:14:29.205Z,7.93
2023-07-30T05:17:01.746Z,10.07
2023-07-30T05:19:34.475Z,17.25
2023-07-30T05:22:09.031Z,14.30
2023-07-30T05:24:41.601Z,11.15
2023-07-30T05:27:14.408Z,8.32
2023-07-30T05:29:49.334Z,12.70
2023-07-30T05:32:22.034Z,10.05
2023-07-30T05:34:54.591Z,10.88
2023-07-30T05:37:27.196Z,17.40
2023-07-30T05:39:59.789Z,13.25
2023-07-30T05:42:32.335Z,14.68
2023-07-30T05:45:05.265Z,11.88
2023-07-30T05:47:37.852Z,9.63
2023-07-30T05:50:10.597Z,14.88
2023-07-30T05:52:43.135Z,14.23
2023-07-30T05:55:15.599Z,14.32
2023-07-30T05:57:48.085Z,10.57
2023-07-30T06:00:20.816Z,10.18
2023-07-30T06:02:53.404Z,9.00
2023-07-30T06:05:26.008Z,12.02
2023-07-30T06:07:58.576Z,14.27
2023-07-30T06:10:31.218Z,12.85
2023-07-30T06:13:05.032Z,20.00
2023-07-30T06:15:37.681Z,12.00
2023-07-30T06:18:10.529Z,20.35
2023-07-30T06:20:43.141Z,11.45
2023-07-30T06:23:15.789Z,16.65
2023-07-30T06:25:48.268Z,10.40
2023-07-30T06:28:20.840Z,12.88
2023-07-30T06:30:53.444Z,17.77
2023-07-30T06:33:27.231Z,14.18
2023-07-30T06:35:59.944Z,14.32
2023-07-30T06:38:32.652Z,19.30
2023-07-30T06:41:05.161Z,17.05
2023-07-30T06:43:37.687Z,15.25
2023-07-30T06:46:10.199Z,14.52
2023-07-30T06:48:42.763Z,10.20
2023-07-30T06:51:15.253Z,13.52
2023-07-30T06:53:47.813Z,9.48
2023-07-30T06:56:20.350Z,6.53
2023-07-30T06:58:52.891Z,21.80
2023-07-30T07:01:25.418Z,11.27
2023-07-30T07:03:57.905Z,12.48
2023-07-30T07:06:30.405Z,14.20
2023-07-30T07:09:02.918Z,15.45
2023-07-30T07:11:35.833Z,13.20
2023-07-30T07:14:08.615Z,10.20
2023-07-30T07:16:41.240Z,17.35
2023-07-30T07:19:13.879Z,13.85
2023-07-30T07:21:46.413Z,12.15
2023-07-30T07:24:18.949Z,11.40
2023-07-30T07:26:51.469Z,14.02
2023-07-30T07:29:24.083Z,14.18
2023-07-30T07:31:56.563Z,12.05
2023-07-30T07:34:29.328Z,12.00
2023-07-30T07:37:03.033Z,12.48
2023-07-30T07:39:35.543Z,11.90
2023-07-30T07:42:08.164Z,14.68
2023-07-30T07:44:40.714Z,7.45
2023-07-30T07:47:13.329Z,11.55
2023-07-30T07:49:45.746Z,14.68
2023-07-30T07:52:20.260Z,12.48
2023-07-30T07:54:52.801Z,9.88
2023-07-30T07:57:25.307Z,10.75
2023-07-30T07:59:58.130Z,14.88
2023-07-30T08:02:30.623Z,11.63
2023-07-30T08:05:04.376Z,9.75
2023-07-30T08:07:36.981Z,9.20
2023-07-30T08:10:09.645Z,12.93
2023-07-30T08:12:43.150Z,12.32
2023-07-30T08:15:15.701Z,11.88
2023-07-30T08:17:48.245Z,9.00
2023-07-30T08:20:20.837Z,11.38
2023-07-30T08:22:53.344Z,13.48
2023-07-30T08:25:25.911Z,10.07
2023-07-30T08:27:58.446Z,14.60
2023-07-30T08:30:30.973Z,12.55
2023-07-30T08:33:03.672Z,16.00
2023-07-30T08:35:36.192Z,12.52
2023-07-30T08:38:08.687Z,9.98
2023-07-30T08:40:41.244Z,6.53
2023-07-30T08:43:14.366Z,12.73
2023-07-30T08:45:46.960Z,17.10
2023-07-30T08:48:19.443Z,9.38
2023-07-30T08:50:52.419Z,8.52
2023-07-30T08:53:28.005Z,6.65
2023-07-30T08:56:02.652Z,12.48
2023-07-30T08:58:36.105Z,8.43
2023-07-30T09:01:13.709Z,6.93
2023-07-30T09:03:46.916Z,10.40
2023-07-30T09:06:19.364Z,18.58
2023-07-30T09:08:51.918Z,7.60
2023-07-30T09:11:28.584Z,8.60
2023-07-30T09:14:03.878Z,9.57
2023-07-30T09:19:08.810Z,5.57
2023-07-30T09:21:41.551Z,10.40
2023-07-30T09:24:22.842Z,9.60
2023-07-30T09:26:55.353Z,9.60
2023-07-30T09:29:27.847Z,10.43
2023-07-30T09:32:00.653Z,5.13
2023-07-30T09:34:33.132Z,6.18
2023-07-30T09:37:05.824Z,5.00
2023-07-30T09:39:38.962Z,10.00
2023-07-30T09:42:11.495Z,6.70
2023-07-30T09:44:48.006Z,12.63
2023-07-30T09:47:20.506Z,8.00
2023-07-30T09:49:53.219Z,8.27
2023-07-30T09:52:25.757Z,6.20
2023-07-30T09:54:59.699Z,6.38
2023-07-30T09:57:32.287Z,7.90
2023-07-30T10:00:06.933Z,4.80
2023-07-30T10:02:44.369Z,8.35
2023-07-30T10:05:19.666Z,8.80
2023-07-30T10:10:32.908Z,4.30
2023-07-30T10:13:10.847Z,3.03
2023-07-30T10:15:44.702Z,6.18
2023-07-30T10:18:17.492Z,6.15
2023-07-30T10:20:58.657Z,6.45
2023-07-30T10:23:34.122Z,4.13
2023-07-30T10:26:11.654Z,8.93
2023-07-30T10:28:45.054Z,5.68
2023-07-30T10:31:17.839Z,5.18
2023-07-30T10:33:52.430Z,3.58
2023-07-30T10:36:41.342Z,4.20
2023-07-30T10:39:29.565Z,10.93
2023-07-30T10:42:04.038Z,9.82
2023-07-30T10:44:36.968Z,3.75
2023-07-30T10:47:16.350Z,5.32
2023-07-30T10:50:02.696Z,5.32
2023-07-30T10:52:37.220Z,6.00
2023-07-30T10:55:09.920Z,5.38
2023-07-30T10:57:44.244Z,6.82
2023-07-30T11:00:16.891Z,4.35
2023-07-30T11:02:56.602Z,5.65
2023-07-30T11:05:29.556Z,6.97
2023-07-30T11:08:02.043Z,6.95
2023-07-30T11:10:43.512Z,3.90
2023-07-30T11:13:16.164Z,6.35
2023-07-30T11:15:48.664Z,2.42
2023-07-30T11:18:21.235Z,7.22
2023-07-30T11:21:02.957Z,6.85
2023-07-30T11:23:40.022Z,3.38
2023-07-30T11:26:18.125Z,3.67
2023-07-30T11:28:50.620Z,8.68
2023-07-30T11:31:25.766Z,4.32
2023-07-30T11:33:58.377Z,8.23
2023-07-30T11:36:31.089Z,2.78
2023-07-30T11:39:04.479Z,6.20
2023-07-30T11:41:37.956Z,5.15
2023-07-30T11:44:30.815Z,7.10
2023-07-30T11:47:05.157Z,5.43
2023-07-30T11:49:38.301Z,3.08
2023-07-30T11:52:11.893Z,4.75
2023-07-30T11:54:44.525Z,2.75
2023-07-30T11:57:17.125Z,6.97
2023-07-30T11:59:49.867Z,5.15
2023-07-30T12:02:22.398Z,4.70
2023-07-30T12:05:06.040Z,9.73
2023-07-30T12:07:44.076Z,4.18
2023-07-30T12:10:18.718Z,4.78
2023-07-30T12:12:54.191Z,6.85
2023-07-30T12:15:28.665Z,3.35
2023-07-30T12:18:01.347Z,8.40
2023-07-30T12:20:33.895Z,3.85
2023-07-30T12:23:06.466Z,3.42
2023-07-30T12:25:39.259Z,7.13
2023-07-30T12:28:11.855Z,3.88
2023-07-30T12:30:44.453Z,3.50
2023-07-30T12:33:18.067Z,3.28
2023-07-30T12:35:51.299Z,2.58
2023-07-30T12:38:23.973Z,3.00
2023-07-30T12:40:56.606Z,6.15
2023-07-30T12:43:29.071Z,8.70
2023-07-30T12:46:01.689Z,4.88
2023-07-30T12:48:34.241Z,6.88
2023-07-30T12:51:06.783Z,4.43
2023-07-30T12:53:40.591Z,3.70
2023-07-30T12:56:13.602Z,3.83
2023-07-30T12:58:46.182Z,5.93
2023-07-30T13:01:18.880Z,4.88
2023-07-30T13:03:52.940Z,5.45
2023-07-30T13:06:25.565Z,5.65
2023-07-30T13:08:58.066Z,5.47
2023-07-30T13:11:30.626Z,4.22
2023-07-30T13:14:05.119Z,6.32
2023-07-30T13:16:37.945Z,0.95
2023-07-30T13:19:10.544Z,2.60
2023-07-30T13:21:43.001Z,2.08
2023-07-30T13:24:15.539Z,3.53
2023-07-30T13:26:48.013Z,4.78
2023-07-30T13:29:20.523Z,7.80
2023-07-30T13:31:53.118Z,2.13
2023-07-30T13:34:25.840Z,4.55
2023-07-30T13:36:58.400Z,2.88
2023-07-30T13:39:30.968Z,3.22
2023-07-30T13:42:03.796Z,2.75
2023-07-30T13:44:36.390Z,3.53
2023-07-30T13:47:09.066Z,3.88
2023-07-30T13:49:41.717Z,3.15
2023-07-30T13:52:14.777Z,3.28
2023-07-30T13:54:47.388Z,3.25
2023-07-30T13:57:26.647Z,3.20
2023-07-30T13:59:59.288Z,3.47
2023-07-30T14:02:31.773Z,1.83
2023-07-30T14:05:04.707Z,6.60
2023-07-30T14:07:37.164Z,4.53
2023-07-30T14:10:10.706Z,6.30
2023-07-30T14:12:43.219Z,3.67
2023-07-30T14:15:18.525Z,3.42
2023-07-30T14:17:53.028Z,4.38
2023-07-30T14:20:25.754Z,4.22
2023-07-30T14:23:01.346Z,5.45
2023-07-30T14:25:33.942Z,5.97
2023-07-30T14:28:06.683Z,5.65
2023-07-30T14:30:45.075Z,1.70
2023-07-30T14:33:20.700Z,4.13
2023-07-30T14:35:55.404Z,5.00
2023-07-30T14:38:28.009Z,10.32
2023-07-30T14:41:00.774Z,3.53
2023-07-30T14:43:33.252Z,4.93
2023-07-30T14:46:05.887Z,4.90
2023-07-30T14:48:38.422Z,4.40
2023-07-30T14:51:11.191Z,4.18
2023-07-30T14:53:44.451Z,2.80
2023-07-30T14:56:17.023Z,2.58
2023-07-30T14:58:49.490Z,7.45
2023-07-30T15:01:23.821Z,14.73
2023-07-30T15:03:56.310Z,12.30
2023-07-30T15:06:32.712Z,4.60
2023-07-30T15:09:05.580Z,7.60
2023-07-30T15:11:38.063Z,6.28
2023-07-30T15:14:10.618Z,6.07
2023-07-30T15:16:43.136Z,2.72
2023-07-30T15:19:15.653Z,3.70
2023-07-30T15:21:49.456Z,6.93
2023-07-30T15:24:21.976Z,2.85
2023-07-30T15:26:54.603Z,6.15
2023-07-30T15:29:27.155Z,2.08
2023-07-30T15:32:00.096Z,5.03
2023-07-30T15:34:32.643Z,8.82
2023-07-30T15:37:05.409Z,8.32
2023-07-30T15:39:38.213Z,8.73
2023-07-30T15:42:10.804Z,10.70
2023-07-30T15:44:43.389Z,4.05
2023-07-30T15:47:15.981Z,12.52
2023-07-30T15:49:48.568Z,8.70
2023-07-30T15:52:21.075Z,6.30
2023-07-30T15:54:54.687Z,4.47
2023-07-30T15:57:27.800Z,4.85
2023-07-30T16:00:01.263Z,7.30
2023-07-30T16:02:34.340Z,3.92
2023-07-30T16:05:07.192Z,4.35
2023-07-30T16:07:40.971Z,4.78
2023-07-30T16:10:13.677Z,6.85
2023-07-30T16:12:46.249Z,5.55
2023-07-30T16:15:18.842Z,14.85
2023-07-30T16:17:51.386Z,8.98
2023-07-30T16:20:24.198Z,9.20
2023-07-30T16:22:56.702Z,6.55
2023-07-30T16:25:29.208Z,5.80
2023-07-30T16:28:02.253Z,5.78
2023-07-30T16:30:34.773Z,6.78
2023-07-30T16:33:09.442Z,5.00
2023-07-30T16:35:41.960Z,8.20
2023-07-30T16:38:16.093Z,13.73
2023-07-30T16:40:48.721Z,14.13
2023-07-30T16:43:21.619Z,15.00
2023-07-30T16:45:54.856Z,15.30
2023-07-30T16:48:27.573Z,15.15
2023-07-30T16:51:00.175Z,11.65
2023-07-30T16:53:32.840Z,16.77
2023-07-30T16:56:17.562Z,15.13
2023-07-30T16:58:50.093Z,9.05
2023-07-30T17:01:23.156Z,10.27
2023-07-30T17:03:55.847Z,10.45
2023-07-30T17:06:28.458Z,10.32
2023-07-30T17:09:01.142Z,9.30
2023-07-30T17:11:33.788Z,4.70
2023-07-30T17:14:06.356Z,5.60
2023-07-30T17:16:40.502Z,7.78
2023-07-30T17:19:13.213Z,8.57
2023-07-30T17:21:46.626Z,4.47
2023-07-30T17:24:19.101Z,2.80
2023-07-30T17:26:51.573Z,4.30
2023-07-30T17:29:24.082Z,6.50
2023-07-30T17:31:56.735Z,4.00
2023-07-30T17:34:29.348Z,6.53
2023-07-30T17:37:02.240Z,5.78
2023-07-30T17:39:37.943Z,5.75
2023-07-30T17:42:10.598Z,3.67
2023-07-30T17:44:45.220Z,4.38
2023-07-30T17:47:17.658Z,3.78
2023-07-30T17:49:50.762Z,6.97
2023-07-30T17:52:23.725Z,5.93
2023-07-30T17:54:56.313Z,6.35
2023-07-30T17:57:28.807Z,8.75
2023-07-30T18:00:01.368Z,10.20
2023-07-30T18:02:33.984Z,6.07
2023-07-30T18:05:06.549Z,9.40
2023-07-30T18:07:39.088Z,5.03
2023-07-30T18:10:11.716Z,7.55
2023-07-30T18:12:45.601Z,7.72
2023-07-30T18:15:18.133Z,7.20
2023-07-30T18:17:50.726Z,6.28
2023-07-30T18:20:23.335Z,3.42
2023-07-30T18:22:55.760Z,8.65
2023-07-30T18:25:28.289Z,7.00
2023-07-30T18:28:00.885Z,8.10
2023-07-30T18:30:35.179Z,4.47
2023-07-30T18:33:11.024Z,5.65
2023-07-30T18:35:44.158Z,7.32
2023-07-30T18:38:16.712Z,5.22
2023-07-30T18:40:49.427Z,5.03
2023-07-30T18:43:23.734Z,6.35
2023-07-30T18:45:56.413Z,2.28
2023-07-30T18:48:30.428Z,3.40
2023-07-30T18:51:02.959Z,5.18
2023-07-30T18:53:36.225Z,4.00
2023-07-30T18:56:08.766Z,1.90
2023-07-30T18:58:41.239Z,2.35
2023-07-30T19:01:13.862Z,6.03
2023-07-30T19:03:48.893Z,3.58
2023-07-30T19:06:21.659Z,2.03
2023-07-30T19:08:54.141Z,3.95
2023-07-30T19:11:26.861Z,2.30
2023-07-30T19:13:59.475Z,2.63
2023-07-30T19:16:32.141Z,2.85
2023-07-30T19:19:05.431Z,1.88
2023-07-30T19:21:37.977Z,1.50
2023-07-30T19:24:11.309Z,1.42
2023-07-30T19:26:43.873Z,2.28
2023-07-30T19:29:16.362Z,2.80
2023-07-30T19:31:48.787Z,2.03
2023-07-30T19:34:21.350Z,2.58
2023-07-30T19:36:53.849Z,1.83
2023-07-30T19:39:26.406Z,1.20
2023-07-30T19:41:58.982Z,2.55
2023-07-30T19:44:31.685Z,3.38
2023-07-30T19:47:04.540Z,1.00
2023-07-30T19:49:39.138Z,3.35
2023-07-30T19:52:13.171Z,1.40
2023-07-30T19:54:45.664Z,1.92
2023-07-30T19:57:18.181Z,0.98
2023-07-30T19:59:53.668Z,1.13
2023-07-30T20:02:26.327Z,1.83
2023-07-30T20:04:59.203Z,0.95
2023-07-30T20:07:31.913Z,1.10
2023-07-30T20:10:04.579Z,1.02
2023-07-30T20:12:37.158Z,3.58
2023-07-30T20:15:09.934Z,3.67
2023-07-30T20:17:42.492Z,1.90
2023-07-30T20:20:15.154Z,2.45
2023-07-30T20:22:47.695Z,1.42
2023-07-30T20:25:20.328Z,1.17
2023-07-30T20:27:52.934Z,2.70
2023-07-30T20:30:25.416Z,1.60
2023-07-30T20:32:57.995Z,4.18
2023-07-30T20:35:31.202Z,3.28
2023-07-30T20:38:03.817Z,1.33
2023-07-30T20:40:36.421Z,2.03
2023-07-30T20:43:08.970Z,1.58
2023-07-30T20:45:41.502Z,1.95
2023-07-30T20:48:14.056Z,1.83
2023-07-30T20:50:47.108Z,1.27
2023-07-30T20:53:20.446Z,1.77
2023-07-30T20:55:53.141Z,1.30
2023-07-30T20:58:26.315Z,1.50
2023-07-30T21:00:59.051Z,1.67
2023-07-30T21:03:33.672Z,1.65
2023-07-30T21:06:06.509Z,3.08
2023-07-30T21:08:39.199Z,2.72
2023-07-30T21:11:11.724Z,3.70
2023-07-30T21:13:44.256Z,1.63
2023-07-30T21:16:16.818Z,1.33
2023-07-30T21:18:49.394Z,2.25
2023-07-30T21:21:22.144Z,3.72
2023-07-30T21:23:54.659Z,1.95
2023-07-30T21:26:27.221Z,3.15
2023-07-30T21:28:59.702Z,1.58
2023-07-30T21:31:32.229Z,1.42
2023-07-30T21:34:04.729Z,3.13
2023-07-30T21:36:37.554Z,2.70
2023-07-30T21:39:10.327Z,2.05
2023-07-30T21:41:43.028Z,1.58
2023-07-30T21:44:15.557Z,2.22
2023-07-30T21:46:48.168Z,1.88
2023-07-30T21:49:20.724Z,1.42
2023-07-30T21:51:57.198Z,1.67
2023-07-30T21:54:29.709Z,1.73
2023-07-30T21:57:02.305Z,3.80
2023-07-30T21:59:34.803Z,4.43
2023-07-30T22:02:07.360Z,2.33
2023-07-30T22:04:39.951Z,4.13
2023-07-30T22:07:13.882Z,6.32
2023-07-30T22:09:46.638Z,4.68
2023-07-30T22:12:19.184Z,5.22
2023-07-30T22:14:51.730Z,12.35
2023-07-30T22:17:24.283Z,10.13
2023-07-30T22:19:56.809Z,7.88
2023-07-30T22:22:29.431Z,13.75
2023-07-30T22:25:02.030Z,7.28
2023-07-30T22:27:34.515Z,9.02
2023-07-30T22:30:07.667Z,9.02
2023-07-30T22:32:40.203Z,9.90
2023-07-30T22:35:12.742Z,12.52
2023-07-30T22:37:45.254Z,8.82
2023-07-30T22:40:17.994Z,9.93
2023-07-30T22:42:50.723Z,11.43
2023-07-30T22:45:23.413Z,12.90
2023-07-30T22:47:56.030Z,7.82
2023-07-30T22:50:28.639Z,9.38
2023-07-30T22:53:01.156Z,10.45
2023-07-30T22:55:33.679Z,4.95
2023-07-30T22:58:06.190Z,14.95
2023-07-30T23:00:38.874Z,14.65
2023-07-30T23:03:12.016Z,14.38
2023-07-30T23:05:44.723Z,12.35
2023-07-30T23:08:17.243Z,13.30
2023-07-30T23:10:50.633Z,8.13
2023-07-30T23:13:23.103Z,11.05
2023-07-30T23:15:55.748Z,9.48
2023-07-30T23:18:30.842Z,14.85
2023-07-30T23:21:03.833Z,13.90
2023-07-30T23:23:36.339Z,12.02
2023-07-30T23:26:08.866Z,13.52
2023-07-30T23:28:42.929Z,12.75
2023-07-30T23:31:15.549Z,14.57
2023-07-30T23:33:48.371Z,14.80
2023-07-30T23:36:20.922Z,12.20
2023-07-30T23:38:53.468Z,12.60
2023-07-30T23:41:25.997Z,15.63
2023-07-30T23:43:58.435Z,16.48
2023-07-30T23:46:30.936Z,15.93
2023-07-30T23:49:03.627Z,13.10
2023-07-30T23:51:36.496Z,13.13
2023-07-30T23:54:09.131Z,14.20
2023-07-30T23:56:41.847Z,18.63
2023-07-30T23:59:14.422Z,14.88
